Arboledas, Argentina
Current Conditions -  °F | °C
As of 8:00 AM on Friday 31 Oct 2014 (Local Time) from SAEZ Reporting Station
Overcast Overcast  
Wind Chill: 17°   Ceiling: 10000
Heat Index: 17°   Visibility: 6mi
Dew Point: 13°   Wind: 7mph
Humidity: 77%   Direction: 140°SE
Pressure: 29.97"   Gusts: NA
Location:  36.49°S, 61.45°W
Report Text: SAEZ 311100Z 14006KT 9999 FEW030 SCT035 OVC100 17/13 Q1015
Loading
Personal Weather Stations






























Interactive Weather Map
Tropical Storm Tracking
New forecast layout! Learn more

10-Day Weather Forecast

Advertisements
Track Severe Weather on mobile